createdAt,value
2017-05-26T00:01:49.727Z,18.10
2017-05-26T00:04:16.367Z,18.33
2017-05-26T00:06:43.762Z,19.40
2017-05-26T00:09:10.462Z,19.05
2017-05-26T00:11:37.103Z,19.00
2017-05-26T00:14:03.727Z,19.83
2017-05-26T00:16:30.357Z,21.92
2017-05-26T00:18:57.028Z,18.17
2017-05-26T00:21:23.647Z,18.58
2017-05-26T00:23:50.268Z,18.65
2017-05-26T00:26:16.911Z,21.10
2017-05-26T00:28:43.531Z,18.17
2017-05-26T00:31:10.147Z,18.92
2017-05-26T00:33:36.787Z,20.67
2017-05-26T00:36:03.495Z,21.03
2017-05-26T00:38:30.115Z,20.32
2017-05-26T00:40:56.761Z,20.87
2017-05-26T00:43:23.387Z,19.53
2017-05-26T00:45:50.051Z,20.53
2017-05-26T00:48:16.792Z,24.25
2017-05-26T00:50:43.411Z,19.92
2017-05-26T00:53:10.027Z,23.13
2017-05-26T00:55:36.667Z,19.52
2017-05-26T00:58:03.287Z,20.05
2017-05-26T01:00:29.907Z,19.62
2017-05-26T01:02:56.544Z,21.72
2017-05-26T01:05:23.166Z,19.07
2017-05-26T01:07:49.783Z,21.43
2017-05-26T01:10:16.419Z,26.75
2017-05-26T01:12:43.044Z,20.38
2017-05-26T01:15:09.672Z,20.70
2017-05-26T01:17:36.459Z,21.65
2017-05-26T01:20:03.087Z,20.20
2017-05-26T01:22:29.703Z,19.37
2017-05-26T01:24:56.376Z,21.02
2017-05-26T01:27:23.015Z,20.97
2017-05-26T01:29:49.639Z,22.20
2017-05-26T01:32:16.859Z,19.92
2017-05-26T01:34:43.548Z,24.37
2017-05-26T01:37:10.167Z,21.00
2017-05-26T01:39:36.816Z,23.65
2017-05-26T01:42:03.463Z,20.83
2017-05-26T01:44:30.083Z,21.27
2017-05-26T01:46:56.743Z,19.90
2017-05-26T01:49:23.383Z,20.12
2017-05-26T01:51:50.003Z,19.53
2017-05-26T01:54:16.659Z,21.43
2017-05-26T01:56:43.279Z,21.22
2017-05-26T01:59:09.938Z,21.62
2017-05-26T02:01:36.571Z,20.70
2017-05-26T02:04:03.194Z,23.17
2017-05-26T02:06:29.811Z,20.77
2017-05-26T02:08:56.452Z,19.93
2017-05-26T02:11:23.071Z,21.65
2017-05-26T02:13:49.691Z,22.33
2017-05-26T02:16:16.407Z,20.72
2017-05-26T02:18:43.032Z,21.53
2017-05-26T02:21:09.650Z,22.57
2017-05-26T02:23:36.631Z,20.72
2017-05-26T02:26:03.252Z,19.82
2017-05-26T02:28:29.906Z,20.30
2017-05-26T02:30:56.548Z,21.17
2017-05-26T02:33:23.171Z,22.32
2017-05-26T02:35:49.826Z,21.33
2017-05-26T02:38:16.471Z,20.48
2017-05-26T02:40:43.144Z,21.77
2017-05-26T02:43:09.780Z,20.63
2017-05-26T02:45:36.415Z,20.28
2017-05-26T02:48:03.035Z,21.18
2017-05-26T02:50:29.658Z,22.78
2017-05-26T02:52:56.403Z,21.10
2017-05-26T02:55:23.043Z,20.03
2017-05-26T02:57:49.662Z,20.73
2017-05-26T03:00:16.304Z,20.45
2017-05-26T03:02:42.959Z,22.10
2017-05-26T03:05:09.578Z,22.82
2017-05-26T03:07:36.237Z,20.92
2017-05-26T03:10:02.851Z,21.15
2017-05-26T03:12:29.472Z,21.50
2017-05-26T03:14:56.155Z,21.33
2017-05-26T03:17:22.801Z,22.55
2017-05-26T03:19:49.414Z,23.52
2017-05-26T03:22:16.051Z,22.20
2017-05-26T03:24:42.718Z,30.00
2017-05-26T03:27:09.353Z,24.85
2017-05-26T03:29:35.995Z,22.00
2017-05-26T03:32:02.611Z,22.82
2017-05-26T03:34:29.231Z,25.02
2017-05-26T03:36:55.867Z,23.12
2017-05-26T03:39:22.486Z,24.07
2017-05-26T03:41:49.185Z,25.73
2017-05-26T03:44:15.824Z,22.78
2017-05-26T03:46:42.443Z,24.17
2017-05-26T03:49:09.100Z,27.53
2017-05-26T03:51:35.740Z,22.03
2017-05-26T03:54:02.360Z,24.42
2017-05-26T03:56:28.978Z,28.38
2017-05-26T03:58:55.624Z,27.85
2017-05-26T04:01:22.243Z,22.48
2017-05-26T04:03:48.868Z,23.33
2017-05-26T04:06:15.516Z,25.98
2017-05-26T04:08:42.140Z,24.00
2017-05-26T04:11:08.755Z,22.40
2017-05-26T04:13:35.391Z,22.25
2017-05-26T04:16:02.027Z,25.00
2017-05-26T04:18:28.647Z,22.53
2017-05-26T04:20:55.312Z,23.23
2017-05-26T04:23:21.947Z,23.53
2017-05-26T04:25:48.571Z,24.70
2017-05-26T04:28:15.213Z,23.72
2017-05-26T04:30:41.864Z,23.70
2017-05-26T04:33:08.501Z,23.22
2017-05-26T04:35:35.139Z,25.93
2017-05-26T04:38:01.763Z,21.68
2017-05-26T04:40:28.391Z,25.23
2017-05-26T04:42:55.035Z,31.17
2017-05-26T04:45:21.703Z,22.83
2017-05-26T04:47:48.320Z,22.98
2017-05-26T04:50:14.989Z,25.13
2017-05-26T04:52:41.610Z,24.90
2017-05-26T04:55:08.231Z,23.82
2017-05-26T04:57:34.871Z,22.47
2017-05-26T05:00:01.494Z,23.33
2017-05-26T05:02:28.172Z,25.05
2017-05-26T05:04:54.815Z,25.30
2017-05-26T05:07:21.434Z,26.78
2017-05-26T05:09:48.053Z,25.82
2017-05-26T05:12:14.692Z,24.57
2017-05-26T05:14:41.319Z,27.35
2017-05-26T05:17:07.942Z,24.67
2017-05-26T05:19:34.644Z,24.48
2017-05-26T05:22:01.266Z,26.50
2017-05-26T05:24:27.885Z,25.33
2017-05-26T05:26:54.559Z,24.27
2017-05-26T05:29:21.180Z,24.97
2017-05-26T05:31:47.803Z,26.57
2017-05-26T05:34:14.455Z,24.63
2017-05-26T05:36:41.123Z,29.77
2017-05-26T05:39:07.747Z,28.18
2017-05-26T05:41:34.412Z,28.50
2017-05-26T05:44:01.043Z,27.43
2017-05-26T05:46:27.671Z,26.17
2017-05-26T05:48:54.315Z,29.03
2017-05-26T05:51:20.943Z,30.18
2017-05-26T05:53:47.599Z,28.23
2017-05-26T05:56:14.251Z,26.75
2017-05-26T05:58:40.871Z,26.07
2017-05-26T06:01:07.499Z,30.42
2017-05-26T06:03:34.158Z,29.78
2017-05-26T06:06:00.786Z,28.30
2017-05-26T06:08:27.410Z,26.20
2017-05-26T06:10:54.055Z,28.22
2017-05-26T06:13:20.712Z,26.03
2017-05-26T06:15:47.333Z,29.85
2017-05-26T06:18:14.086Z,25.35
2017-05-26T06:20:40.713Z,27.13
2017-05-26T06:23:07.335Z,27.58
2017-05-26T06:25:34.015Z,28.33
2017-05-26T06:28:00.697Z,27.65
2017-05-26T06:30:27.315Z,24.53
2017-05-26T06:32:53.984Z,25.90
2017-05-26T06:35:20.619Z,26.47
2017-05-26T06:37:47.254Z,26.62
2017-05-26T06:40:13.900Z,28.28
2017-05-26T06:42:40.580Z,25.43
2017-05-26T06:45:07.216Z,25.35
2017-05-26T06:47:33.863Z,31.68
2017-05-26T06:50:00.596Z,26.93
2017-05-26T06:52:27.215Z,29.48
2017-05-26T06:54:53.871Z,26.27
2017-05-26T06:57:20.491Z,28.28
2017-05-26T06:59:47.148Z,31.75
2017-05-26T07:02:13.787Z,28.40
2017-05-26T07:04:40.431Z,26.22
2017-05-26T07:07:07.067Z,24.87
2017-05-26T07:09:33.784Z,24.92
2017-05-26T07:12:00.367Z,28.58
2017-05-26T07:14:27.092Z,31.57
2017-05-26T07:16:53.827Z,26.67
2017-05-26T07:19:20.452Z,31.77
2017-05-26T07:21:47.079Z,29.05
2017-05-26T07:24:13.715Z,27.83
2017-05-26T07:26:40.338Z,26.35
2017-05-26T07:29:06.964Z,25.75
2017-05-26T07:31:33.663Z,30.22
2017-05-26T07:34:00.283Z,26.93
2017-05-26T07:36:26.944Z,25.63
2017-05-26T07:38:53.587Z,25.53
2017-05-26T07:41:20.562Z,27.17
2017-05-26T07:43:47.363Z,28.48
2017-05-26T07:46:14.023Z,30.10
2017-05-26T07:48:40.684Z,25.73
2017-05-26T07:51:07.518Z,25.15
2017-05-26T07:53:34.445Z,26.68
2017-05-26T07:56:01.183Z,26.22
2017-05-26T07:58:27.923Z,24.62
2017-05-26T08:00:54.728Z,23.63
2017-05-26T08:03:23.102Z,28.05
2017-05-26T08:05:50.127Z,26.25
2017-05-26T08:08:16.807Z,26.15
2017-05-26T08:10:43.471Z,25.03
2017-05-26T08:13:10.115Z,23.97
2017-05-26T08:15:36.751Z,29.38
2017-05-26T08:18:03.374Z,27.47
2017-05-26T08:20:30.410Z,23.25
2017-05-26T08:22:57.251Z,22.75
2017-05-26T08:25:23.878Z,23.60
2017-05-26T08:27:50.498Z,28.65
2017-05-26T08:30:18.204Z,25.90
2017-05-26T08:32:44.964Z,23.15
2017-05-26T08:35:13.230Z,24.92
2017-05-26T08:37:39.983Z,27.52
2017-05-26T08:40:06.599Z,23.95
2017-05-26T08:42:33.264Z,24.80
2017-05-26T08:44:59.882Z,24.28
2017-05-26T08:47:26.505Z,22.53
2017-05-26T08:49:53.180Z,24.57
2017-05-26T08:52:19.798Z,29.05
2017-05-26T08:54:46.415Z,29.07
2017-05-26T08:57:13.158Z,21.17
2017-05-26T08:59:40.086Z,24.15
2017-05-26T09:02:06.790Z,24.27
2017-05-26T09:04:33.441Z,25.12
2017-05-26T09:07:00.059Z,19.73
2017-05-26T09:09:28.070Z,21.87
2017-05-26T09:11:54.759Z,23.27
2017-05-26T09:14:21.783Z,20.53
2017-05-26T09:16:50.719Z,20.92
2017-05-26T09:19:20.834Z,20.00
2017-05-26T09:21:47.612Z,18.48
2017-05-26T09:24:14.663Z,19.17
2017-05-26T09:26:41.278Z,16.92
2017-05-26T09:29:08.522Z,26.33
2017-05-26T09:31:35.168Z,17.22
2017-05-26T09:34:01.811Z,19.70
2017-05-26T09:36:28.427Z,15.85
2017-05-26T09:38:55.086Z,16.43
2017-05-26T09:41:21.710Z,17.05
2017-05-26T09:43:48.336Z,16.55
2017-05-26T09:46:14.991Z,17.17
2017-05-26T09:48:41.612Z,15.38
2017-05-26T09:51:08.231Z,12.48
2017-05-26T09:53:34.888Z,17.32
2017-05-26T09:56:01.510Z,13.60
2017-05-26T09:58:28.131Z,12.38
2017-05-26T10:00:54.826Z,12.32
2017-05-26T10:03:21.467Z,13.25
2017-05-26T10:05:48.092Z,11.25
2017-05-26T10:08:14.747Z,11.00
2017-05-26T10:10:41.362Z,8.50
2017-05-26T10:13:07.984Z,10.12
2017-05-26T10:15:34.619Z,8.58
2017-05-26T10:18:01.299Z,10.15
2017-05-26T10:20:27.915Z,7.75
2017-05-26T10:22:54.679Z,13.37
2017-05-26T10:25:21.319Z,8.40
2017-05-26T10:27:47.931Z,9.05
2017-05-26T10:30:15.007Z,8.32
2017-05-26T10:32:41.627Z,12.35
2017-05-26T10:35:08.259Z,9.53
2017-05-26T10:37:34.925Z,8.28
2017-05-26T10:40:01.564Z,9.02
2017-05-26T10:42:28.183Z,9.65
2017-05-26T10:44:54.831Z,10.08
2017-05-26T10:47:21.483Z,8.52
2017-05-26T10:49:48.099Z,9.40
2017-05-26T10:52:14.738Z,8.88
2017-05-26T10:54:41.353Z,8.55
2017-05-26T10:57:07.968Z,7.07
2017-05-26T10:59:34.609Z,7.40
2017-05-26T11:02:01.283Z,9.27
2017-05-26T11:04:27.895Z,9.80
2017-05-26T11:06:54.551Z,9.47
2017-05-26T11:09:21.167Z,10.48
2017-05-26T11:11:47.792Z,8.90
2017-05-26T11:14:14.426Z,8.02
2017-05-26T11:16:41.147Z,7.95
2017-05-26T11:19:07.825Z,11.75
2017-05-26T11:21:34.535Z,7.02
2017-05-26T11:24:01.150Z,6.77
2017-05-26T11:26:27.803Z,6.98
2017-05-26T11:28:54.559Z,7.75
2017-05-26T11:31:21.173Z,7.00
2017-05-26T11:33:47.793Z,8.80
2017-05-26T11:36:14.501Z,6.12
2017-05-26T11:38:41.207Z,6.10
2017-05-26T11:41:07.823Z,6.17
2017-05-26T11:43:34.491Z,3.47
2017-05-26T11:46:01.108Z,4.17
2017-05-26T11:48:27.723Z,2.78
2017-05-26T11:50:54.363Z,7.20
2017-05-26T11:53:21.044Z,5.53
2017-05-26T11:55:47.684Z,3.65
2017-05-26T11:58:14.324Z,6.23
2017-05-26T12:00:40.938Z,3.12
2017-05-26T12:03:07.594Z,5.50
2017-05-26T12:05:34.242Z,3.72
2017-05-26T12:08:00.875Z,3.43
2017-05-26T12:10:27.507Z,3.37
2017-05-26T12:12:54.256Z,3.65
2017-05-26T12:15:20.867Z,2.82
2017-05-26T12:17:47.480Z,5.22
2017-05-26T12:20:14.115Z,4.08
2017-05-26T12:22:40.731Z,5.14
2017-05-26T12:25:07.352Z,8.52
2017-05-26T12:27:34.095Z,2.82
2017-05-26T12:30:00.711Z,2.34
2017-05-26T12:32:27.367Z,2.28
2017-05-26T12:34:54.011Z,2.80
2017-05-26T12:37:20.639Z,3.42
2017-05-26T12:39:47.283Z,2.60
2017-05-26T12:42:13.919Z,6.70
2017-05-26T12:44:40.530Z,3.44
2017-05-26T12:47:07.143Z,6.20
2017-05-26T12:49:33.839Z,3.22
2017-05-26T12:52:00.454Z,3.76
2017-05-26T12:54:27.064Z,4.44
2017-05-26T12:56:53.699Z,4.52
2017-05-26T12:59:20.315Z,9.46
2017-05-26T13:01:46.935Z,3.76
2017-05-26T13:04:13.571Z,6.76
2017-05-26T13:06:40.183Z,4.58
2017-05-26T13:09:06.853Z,2.90
2017-05-26T13:11:33.591Z,4.60
2017-05-26T13:14:00.236Z,2.20
2017-05-26T13:16:26.848Z,2.10
2017-05-26T13:18:53.511Z,2.00
2017-05-26T13:21:20.126Z,2.24
2017-05-26T13:23:46.791Z,3.86
2017-05-26T13:26:13.462Z,6.90
2017-05-26T13:28:40.074Z,3.16
2017-05-26T13:31:06.703Z,2.72
2017-05-26T13:33:33.339Z,1.72
2017-05-26T13:35:59.951Z,3.28
2017-05-26T13:38:26.567Z,2.02
2017-05-26T13:40:53.214Z,6.42
2017-05-26T13:43:19.831Z,15.32
2017-05-26T13:45:46.534Z,3.00
2017-05-26T13:48:13.387Z,2.98
2017-05-26T13:50:39.998Z,1.70
2017-05-26T13:53:06.611Z,2.92
2017-05-26T13:55:33.306Z,1.30
2017-05-26T13:57:59.919Z,2.80
2017-05-26T14:00:26.575Z,5.56
2017-05-26T14:02:53.319Z,1.56
2017-05-26T14:05:19.959Z,4.36
2017-05-26T14:07:46.594Z,1.46
2017-05-26T14:10:13.243Z,4.20
2017-05-26T14:12:39.855Z,1.32
2017-05-26T14:15:06.513Z,4.08
2017-05-26T14:17:33.154Z,3.82
2017-05-26T14:19:59.790Z,2.60
2017-05-26T14:22:26.431Z,2.00
2017-05-26T14:24:53.066Z,1.72
2017-05-26T14:27:19.713Z,3.72
2017-05-26T14:29:46.326Z,2.46
2017-05-26T14:32:12.964Z,1.78
2017-05-26T14:34:39.624Z,2.46
2017-05-26T14:37:06.235Z,7.34
2017-05-26T14:39:32.898Z,2.72
2017-05-26T14:41:59.514Z,1.32
2017-05-26T14:44:26.183Z,3.42
2017-05-26T14:46:52.824Z,1.38
2017-05-26T14:49:19.463Z,2.74
2017-05-26T14:51:46.099Z,3.34
2017-05-26T14:54:12.839Z,1.78
2017-05-26T14:56:39.479Z,2.92
2017-05-26T14:59:06.123Z,1.50
2017-05-26T15:01:32.754Z,1.90
2017-05-26T15:03:59.374Z,2.24
2017-05-26T15:06:25.986Z,1.80
2017-05-26T15:08:52.708Z,1.62
2017-05-26T15:11:19.318Z,2.02
2017-05-26T15:13:45.947Z,4.24
2017-05-26T15:16:12.695Z,1.46
2017-05-26T15:18:39.310Z,2.48
2017-05-26T15:21:05.927Z,3.26
2017-05-26T15:23:32.566Z,3.36
2017-05-26T15:25:59.251Z,2.34
2017-05-26T15:28:25.871Z,1.86
2017-05-26T15:30:52.630Z,3.34
2017-05-26T15:33:19.266Z,3.64
2017-05-26T15:35:45.879Z,2.12
2017-05-26T15:38:12.546Z,2.52
2017-05-26T15:40:39.183Z,2.08
2017-05-26T15:43:05.827Z,1.58
2017-05-26T15:45:32.464Z,1.88
2017-05-26T15:47:59.075Z,2.72
2017-05-26T15:50:25.691Z,2.26
2017-05-26T15:52:52.327Z,1.92
2017-05-26T15:55:19.060Z,1.92
2017-05-26T15:57:45.759Z,3.24
2017-05-26T16:00:12.498Z,3.42
2017-05-26T16:02:39.139Z,1.92
2017-05-26T16:05:05.755Z,1.72
2017-05-26T16:07:32.392Z,1.44
2017-05-26T16:09:59.011Z,3.74
2017-05-26T16:12:25.625Z,7.42
2017-05-26T16:14:52.339Z,66.24
2017-05-26T16:17:19.492Z,17.54
2017-05-26T16:19:46.127Z,6.94
2017-05-26T16:22:12.867Z,12.44
2017-05-26T16:27:12.711Z,6.24
2017-05-26T16:29:39.373Z,3.60
2017-05-26T16:32:05.987Z,7.26
2017-05-26T16:34:32.627Z,3.12
2017-05-26T16:36:59.257Z,18.64
2017-05-26T16:39:25.887Z,47.14
2017-05-26T16:41:52.522Z,5.22
2017-05-26T16:44:19.181Z,2.46
2017-05-26T16:46:45.795Z,2.92
2017-05-26T16:49:12.458Z,5.24
2017-05-26T16:51:39.070Z,7.90
2017-05-26T16:54:05.688Z,2.44
2017-05-26T16:56:32.331Z,2.58
2017-05-26T16:58:58.947Z,2.36
2017-05-26T17:01:25.643Z,3.94
2017-05-26T17:03:52.278Z,3.10
2017-05-26T17:06:18.895Z,4.60
2017-05-26T17:08:45.563Z,4.60
2017-05-26T17:11:12.314Z,4.08
2017-05-26T17:13:38.931Z,5.50
2017-05-26T17:16:05.579Z,5.02
2017-05-26T17:18:32.320Z,4.55
2017-05-26T17:20:58.938Z,4.47
2017-05-26T17:23:25.599Z,6.27
2017-05-26T17:25:52.236Z,3.12
2017-05-26T17:28:18.874Z,4.62
2017-05-26T17:30:45.515Z,4.57
2017-05-26T17:33:12.152Z,2.68
2017-05-26T17:35:38.768Z,2.95
2017-05-26T17:38:05.432Z,3.07
2017-05-26T17:40:32.072Z,2.10
2017-05-26T17:42:58.683Z,3.93
2017-05-26T17:45:25.305Z,4.03
2017-05-26T17:47:51.948Z,3.68
2017-05-26T17:50:18.566Z,5.60
2017-05-26T17:52:45.268Z,4.48
2017-05-26T17:55:11.906Z,3.67
2017-05-26T17:57:38.579Z,3.43
2017-05-26T18:00:05.196Z,3.07
2017-05-26T18:02:31.856Z,3.73
2017-05-26T18:04:58.473Z,5.30
2017-05-26T18:07:25.086Z,5.72
2017-05-26T18:09:51.839Z,4.92
2017-05-26T18:12:18.455Z,3.90
2017-05-26T18:14:45.072Z,2.98
2017-05-26T18:17:11.755Z,4.35
2017-05-26T18:19:38.398Z,3.25
2017-05-26T18:22:05.014Z,3.78
2017-05-26T18:24:31.666Z,5.12
2017-05-26T18:26:58.280Z,6.42
2017-05-26T18:29:24.891Z,4.50
2017-05-26T18:31:51.627Z,8.50
2017-05-26T18:34:18.242Z,4.22
2017-05-26T18:36:44.854Z,7.85
2017-05-26T18:39:11.492Z,7.10
2017-05-26T18:41:38.106Z,3.35
2017-05-26T18:44:04.725Z,3.02
2017-05-26T18:46:31.363Z,2.95
2017-05-26T18:48:57.984Z,2.93
2017-05-26T18:51:24.603Z,3.57
2017-05-26T18:53:51.348Z,3.22
2017-05-26T18:56:17.959Z,5.08
2017-05-26T18:58:44.579Z,4.18
2017-05-26T19:01:11.266Z,14.35
2017-05-26T19:03:37.878Z,3.10
2017-05-26T19:06:04.495Z,3.78
2017-05-26T19:08:31.138Z,7.35
2017-05-26T19:10:57.763Z,2.20
2017-05-26T19:13:24.385Z,4.77
2017-05-26T19:15:51.062Z,4.03
2017-05-26T19:18:17.730Z,2.97
2017-05-26T19:20:44.347Z,4.88
2017-05-26T19:23:11.012Z,5.98
2017-05-26T19:25:37.631Z,5.27
2017-05-26T19:28:04.247Z,3.08
2017-05-26T19:30:30.903Z,3.65
2017-05-26T19:32:57.570Z,4.83
2017-05-26T19:35:24.267Z,4.93
2017-05-26T19:37:50.870Z,4.30
2017-05-26T19:40:17.487Z,3.28
2017-05-26T19:42:44.126Z,2.52
2017-05-26T19:45:10.758Z,3.12
2017-05-26T19:47:37.404Z,3.00
2017-05-26T19:50:04.027Z,3.22
2017-05-26T19:52:30.681Z,3.15
2017-05-26T19:54:57.294Z,2.58
2017-05-26T19:57:23.959Z,3.02
2017-05-26T19:59:50.603Z,3.27
2017-05-26T20:02:17.219Z,3.10
2017-05-26T20:04:43.876Z,6.55
2017-05-26T20:07:10.555Z,7.72
2017-05-26T20:09:38.423Z,3.50
2017-05-26T20:12:05.303Z,2.65
2017-05-26T20:14:31.947Z,10.80
2017-05-26T20:16:58.558Z,3.10
2017-05-26T20:19:25.180Z,10.55
2017-05-26T20:21:51.886Z,3.63
2017-05-26T20:24:18.502Z,11.90
2017-05-26T20:26:45.123Z,4.90
2017-05-26T20:29:11.804Z,7.37
2017-05-26T20:31:38.415Z,4.20
2017-05-26T20:34:05.031Z,3.77
2017-05-26T20:36:31.719Z,4.62
2017-05-26T20:38:58.335Z,5.43
2017-05-26T20:41:24.951Z,6.33
2017-05-26T20:43:51.643Z,4.73
2017-05-26T20:46:18.260Z,4.68
2017-05-26T20:48:44.875Z,5.00
2017-05-26T20:51:11.560Z,7.32
2017-05-26T20:53:38.317Z,7.18
2017-05-26T20:56:04.959Z,4.88
2017-05-26T20:58:31.679Z,5.32
2017-05-26T21:00:58.302Z,5.12
2017-05-26T21:03:24.918Z,8.17
2017-05-26T21:05:51.587Z,4.70
2017-05-26T21:08:18.238Z,8.38
2017-05-26T21:10:44.870Z,7.58
2017-05-26T21:13:11.512Z,6.95
2017-05-26T21:15:38.131Z,12.57
2017-05-26T21:18:04.792Z,10.63
2017-05-26T21:20:31.662Z,4.88
2017-05-26T21:22:58.308Z,5.00
2017-05-26T21:25:24.930Z,6.48
2017-05-26T21:27:51.571Z,4.80
2017-05-26T21:30:18.191Z,15.43
2017-05-26T21:32:44.812Z,4.97
2017-05-26T21:35:11.494Z,4.27
2017-05-26T21:37:38.115Z,3.82
2017-05-26T21:40:04.747Z,6.53
2017-05-26T21:42:31.487Z,4.55
2017-05-26T21:44:58.103Z,4.47
2017-05-26T21:47:24.719Z,3.52
2017-05-26T21:49:51.359Z,4.08
2017-05-26T21:52:18.043Z,4.52
2017-05-26T21:54:44.679Z,4.03
2017-05-26T21:57:11.332Z,4.92
2017-05-26T21:59:37.948Z,5.70
2017-05-26T22:02:04.564Z,5.82
2017-05-26T22:04:31.240Z,9.18
2017-05-26T22:06:57.858Z,6.97
2017-05-26T22:09:24.515Z,6.97
2017-05-26T22:11:51.162Z,10.80
2017-05-26T22:14:17.783Z,6.57
2017-05-26T22:16:44.439Z,5.33
2017-05-26T22:19:11.079Z,5.67
2017-05-26T22:21:37.701Z,6.27
2017-05-26T22:24:04.315Z,8.45
2017-05-26T22:26:30.996Z,5.70
2017-05-26T22:28:57.612Z,5.43
2017-05-26T22:31:24.267Z,6.90
2017-05-26T22:33:51.011Z,7.72
2017-05-26T22:36:17.647Z,7.08
2017-05-26T22:38:44.263Z,7.77
2017-05-26T22:41:10.928Z,8.50
2017-05-26T22:43:37.547Z,6.75
2017-05-26T22:46:04.163Z,5.28
2017-05-26T22:48:30.803Z,9.68
2017-05-26T22:50:57.483Z,4.82
2017-05-26T22:53:24.122Z,5.52
2017-05-26T22:55:50.862Z,9.92
2017-05-26T22:58:17.507Z,6.67
2017-05-26T23:00:44.123Z,8.48
2017-05-26T23:03:10.771Z,7.22
2017-05-26T23:05:37.391Z,6.53
2017-05-26T23:08:04.058Z,5.15
2017-05-26T23:10:30.697Z,5.78
2017-05-26T23:12:57.311Z,7.77
2017-05-26T23:15:23.987Z,6.90
2017-05-26T23:17:50.624Z,4.77
2017-05-26T23:20:17.249Z,5.28
2017-05-26T23:22:43.895Z,6.87
2017-05-26T23:25:10.531Z,4.62
2017-05-26T23:27:37.148Z,7.75
2017-05-26T23:30:03.776Z,6.55
2017-05-26T23:32:30.439Z,4.45
2017-05-26T23:34:57.056Z,4.68
2017-05-26T23:37:23.675Z,6.32
2017-05-26T23:39:50.316Z,8.53
2017-05-26T23:42:16.938Z,8.38
2017-05-26T23:44:43.643Z,6.38
2017-05-26T23:47:10.283Z,9.00
2017-05-26T23:49:36.924Z,7.57
2017-05-26T23:52:03.563Z,5.95
2017-05-26T23:54:30.201Z,6.17
2017-05-26T23:56:56.852Z,9.35
2017-05-26T23:59:23.467Z,11.05
